Time;durP1;ratioP1;P1;durP2;ratioP2;P2;SDS_P1;SDS_P2;PMS_P1;PMS_P2;Temp;Humidity;BMP_temperature;BMP_pressure;BME280_temperature;BME280_humidity;BME280_pressure;Samples;Min_cycle;Max_cycle;Signal;HPM_P1;HPM_P2
2023/11/13 00:03:37;;;;;;;22.43;11.83;;;;;;;;;;10444151;28;20055;-78
2023/11/13 00:08:38;;;;;;;20.20;9.90;;;;;;;;;;10473154;28;20021;-79
2023/11/13 00:13:38;;;;;;;16.60;9.60;;;;;;;;;;10458319;28;20297;-78
2023/11/13 00:18:39;;;;;;;15.83;9.83;;;;;;;;;;10475058;28;20070;-77
2023/11/13 00:23:40;;;;;;;17.88;9.98;;;;;;;;;;10478157;28;20188;-79
2023/11/13 00:28:40;;;;;;;15.60;9.45;;;;;;;;;;10455696;28;20315;-79
2023/11/13 00:33:41;;;;;;;16.08;9.15;;;;;;;;;;10485959;28;20040;-79
2023/11/13 00:38:41;;;;;;;14.68;8.27;;;;;;;;;;10480555;28;20234;-78
2023/11/13 00:43:41;;;;;;;13.60;8.13;;;;;;;;;;10482063;28;20029;-78
2023/11/13 00:48:42;;;;;;;19.73;12.18;;;;;;;;;;10494291;28;20028;-78
2023/11/13 00:53:42;;;;;;;21.27;11.98;;;;;;;;;;10494002;28;20025;-79
2023/11/13 00:58:42;;;;;;;22.77;11.23;;;;;;;;;;10494058;28;20037;-78
2023/11/13 01:03:43;;;;;;;22.30;10.52;;;;;;;;;;10488131;28;20040;-78
2023/11/13 01:08:43;;;;;;;18.73;10.73;;;;;;;;;;10487120;28;20052;-78
2023/11/13 01:13:44;;;;;;;18.20;10.57;;;;;;;;;;10481061;28;20036;-79
2023/11/13 01:18:44;;;;;;;16.98;9.65;;;;;;;;;;10464408;28;20031;-78
2023/11/13 01:23:44;;;;;;;17.92;11.13;;;;;;;;;;10464982;28;20028;-79
2023/11/13 01:28:45;;;;;;;18.15;10.60;;;;;;;;;;10490070;28;20024;-79
2023/11/13 01:33:45;;;;;;;24.58;11.93;;;;;;;;;;10487510;28;20044;-79
2023/11/13 01:38:45;;;;;;;21.13;12.27;;;;;;;;;;10481919;28;20197;-78
2023/11/13 01:43:46;;;;;;;21.73;13.77;;;;;;;;;;10491726;28;20032;-79
2023/11/13 01:48:46;;;;;;;24.92;13.38;;;;;;;;;;10486843;28;20235;-78
2023/11/13 01:53:46;;;;;;;24.80;13.55;;;;;;;;;;10484944;28;20029;-78
2023/11/13 01:58:47;;;;;;;27.08;14.55;;;;;;;;;;10478925;28;20059;-78
2023/11/13 02:03:48;;;;;;;23.13;14.33;;;;;;;;;;10476658;28;20036;-78
2023/11/13 02:08:49;;;;;;;27.10;14.60;;;;;;;;;;10479349;28;20353;-80
2023/11/13 02:13:50;;;;;;;28.17;16.05;;;;;;;;;;10478147;28;20093;-78
2023/11/13 02:18:50;;;;;;;30.42;17.02;;;;;;;;;;10461991;28;20067;-78
2023/11/13 02:23:51;;;;;;;36.25;18.70;;;;;;;;;;10480733;28;20032;-78
2023/11/13 02:28:51;;;;;;;34.33;16.88;;;;;;;;;;10483532;28;20211;-79
2023/11/13 02:33:52;;;;;;;28.25;18.42;;;;;;;;;;10463559;28;20238;-78
2023/11/13 02:38:52;;;;;;;31.58;17.20;;;;;;;;;;10458233;28;20031;-78
2023/11/13 02:43:53;;;;;;;35.53;20.33;;;;;;;;;;10456800;28;20259;-78
2023/11/13 02:48:54;;;;;;;27.33;17.73;;;;;;;;;;10483229;28;20024;-76
2023/11/13 02:53:54;;;;;;;35.92;18.67;;;;;;;;;;10486920;28;20021;-77
2023/11/13 02:58:56;;;;;;;37.78;18.50;;;;;;;;;;10483761;28;20029;-77
2023/11/13 03:03:56;;;;;;;34.03;19.52;;;;;;;;;;10481518;28;20020;-77
2023/11/13 03:08:57;;;;;;;36.03;19.00;;;;;;;;;;10456691;28;20333;-78
2023/11/13 03:13:57;;;;;;;40.28;20.88;;;;;;;;;;10486998;28;20021;-77
2023/11/13 03:18:58;;;;;;;36.03;17.53;;;;;;;;;;10480629;28;20056;-77
2023/11/13 03:23:58;;;;;;;40.83;18.90;;;;;;;;;;10472262;28;20028;-77
2023/11/13 03:28:58;;;;;;;29.85;16.42;;;;;;;;;;10479232;28;20568;-78
2023/11/13 03:33:59;;;;;;;38.33;18.77;;;;;;;;;;10477219;28;20052;-79
2023/11/13 03:38:59;;;;;;;34.97;17.73;;;;;;;;;;10459293;28;20036;-79
2023/11/13 03:44:00;;;;;;;28.15;16.92;;;;;;;;;;10481956;28;20032;-79
2023/11/13 03:49:00;;;;;;;31.20;17.48;;;;;;;;;;10482471;28;20063;-78
2023/11/13 03:54:01;;;;;;;40.10;18.50;;;;;;;;;;10477096;28;20529;-79
2023/11/13 03:59:01;;;;;;;34.47;17.63;;;;;;;;;;10476987;28;20097;-78
2023/11/13 04:04:02;;;;;;;41.35;18.92;;;;;;;;;;10472447;28;20390;-78
2023/11/13 04:09:02;;;;;;;37.15;18.75;;;;;;;;;;10484626;28;20091;-78
2023/11/13 04:14:03;;;;;;;42.70;22.83;;;;;;;;;;10486224;28;20024;-78
2023/11/13 04:19:03;;;;;;;43.10;23.60;;;;;;;;;;10483883;28;20020;-77
2023/11/13 04:24:04;;;;;;;41.67;21.50;;;;;;;;;;10488422;28;20020;-77
2023/11/13 04:29:04;;;;;;;48.95;25.15;;;;;;;;;;10485123;28;20342;-77
2023/11/13 04:34:07;;;;;;;54.83;25.55;;;;;;;;;;10487662;28;20091;-79
2023/11/13 04:39:09;;;;;;;50.08;25.27;;;;;;;;;;10496032;28;20020;-80
2023/11/13 04:44:09;;;;;;;44.92;23.02;;;;;;;;;;10467929;28;20041;-80
2023/11/13 04:49:09;;;;;;;47.05;24.48;;;;;;;;;;10489238;28;20036;-79
2023/11/13 04:54:10;;;;;;;47.35;24.02;;;;;;;;;;10495200;28;20103;-79
2023/11/13 04:59:11;;;;;;;51.15;25.30;;;;;;;;;;10486618;28;20334;-81
2023/11/13 05:04:11;;;;;;;45.08;24.42;;;;;;;;;;10490469;28;20040;-79
2023/11/13 05:09:12;;;;;;;53.90;26.70;;;;;;;;;;10495306;28;20020;-79
2023/11/13 05:14:13;;;;;;;54.58;26.23;;;;;;;;;;10493543;28;20020;-79
2023/11/13 05:19:14;;;;;;;55.78;27.98;;;;;;;;;;10511648;28;20036;-79
2023/11/13 05:24:15;;;;;;;62.20;28.60;;;;;;;;;;10507834;28;20031;-79
2023/11/13 05:29:15;;;;;;;61.47;30.03;;;;;;;;;;10506048;28;20196;-78
2023/11/13 05:34:15;;;;;;;57.20;29.70;;;;;;;;;;10504243;28;20063;-78
2023/11/13 05:39:16;;;;;;;60.13;29.90;;;;;;;;;;10505113;28;20032;-78
2023/11/13 05:44:16;;;;;;;70.47;30.93;;;;;;;;;;10505213;28;20339;-77
2023/11/13 05:49:16;;;;;;;61.42;29.48;;;;;;;;;;10504475;28;20012;-77
2023/11/13 05:54:18;;;;;;;68.75;32.00;;;;;;;;;;10502236;28;20346;-78
2023/11/13 05:59:18;;;;;;;65.93;29.77;;;;;;;;;;10501302;28;20107;-76
2023/11/13 06:04:19;;;;;;;61.40;29.80;;;;;;;;;;10499719;28;20032;-76
2023/11/13 06:09:19;;;;;;;67.22;31.85;;;;;;;;;;10484729;28;20029;-77
2023/11/13 06:14:23;;;;;;;57.92;29.33;;;;;;;;;;10485267;28;20024;-77
2023/11/13 06:19:23;;;;;;;64.50;28.77;;;;;;;;;;10499359;28;20250;-77
2023/11/13 06:24:24;;;;;;;65.80;29.27;;;;;;;;;;10500362;28;20029;-78
2023/11/13 06:29:25;;;;;;;64.05;29.38;;;;;;;;;;10500708;28;20048;-78
2023/11/13 06:34:25;;;;;;;63.03;28.45;;;;;;;;;;10502357;28;20040;-77
2023/11/13 06:39:26;;;;;;;65.20;29.90;;;;;;;;;;10500309;28;20039;-78
2023/11/13 06:44:26;;;;;;;57.95;26.50;;;;;;;;;;10500385;28;20028;-79
2023/11/13 06:49:27;;;;;;;60.88;27.75;;;;;;;;;;10499694;28;20024;-77
2023/11/13 06:54:27;;;;;;;53.42;26.33;;;;;;;;;;10500296;28;20180;-78
2023/11/13 06:59:28;;;;;;;50.85;24.20;;;;;;;;;;10501923;28;20067;-78
2023/11/13 07:04:29;;;;;;;41.88;23.08;;;;;;;;;;10499532;28;20095;-76
2023/11/13 07:09:30;;;;;;;45.72;23.63;;;;;;;;;;10499473;28;20059;-72
2023/11/13 07:14:30;;;;;;;39.40;20.00;;;;;;;;;;10499670;28;20122;-71
2023/11/13 07:19:33;;;;;;;36.85;19.65;;;;;;;;;;10484585;28;20090;-73
2023/11/13 07:24:36;;;;;;;31.85;16.08;;;;;;;;;;10497078;28;20047;-73
2023/11/13 07:29:36;;;;;;;22.90;11.60;;;;;;;;;;10498690;28;20028;-74
2023/11/13 07:34:37;;;;;;;23.70;12.38;;;;;;;;;;10497911;28;20337;-72
2023/11/13 07:39:37;;;;;;;23.63;12.07;;;;;;;;;;10498132;28;20099;-73
2023/11/13 07:44:38;;;;;;;23.40;12.45;;;;;;;;;;10498461;28;20032;-73
2023/11/13 07:49:38;;;;;;;25.80;12.88;;;;;;;;;;10494575;28;20028;-70
2023/11/13 07:54:40;;;;;;;28.70;14.90;;;;;;;;;;10497102;28;20211;-72
2023/11/13 07:59:41;;;;;;;29.55;13.73;;;;;;;;;;10498009;28;20108;-70
2023/11/13 08:04:41;;;;;;;35.88;18.58;;;;;;;;;;10498083;28;20025;-70
2023/11/13 08:09:41;;;;;;;41.05;20.88;;;;;;;;;;10497928;28;20032;-70
2023/11/13 08:14:41;;;;;;;46.40;21.98;;;;;;;;;;10498355;28;20378;-70
2023/11/13 08:19:42;;;;;;;39.08;20.20;;;;;;;;;;10497697;28;20293;-70
2023/11/13 08:24:42;;;;;;;40.33;20.15;;;;;;;;;;10497539;28;20032;-72
2023/11/13 08:29:42;;;;;;;41.95;20.95;;;;;;;;;;10497420;28;20231;-71
2023/11/13 08:34:43;;;;;;;33.10;17.88;;;;;;;;;;10497189;28;20327;-70
2023/11/13 08:39:43;;;;;;;40.72;18.42;;;;;;;;;;10497086;28;20326;-72
2023/11/13 08:44:43;;;;;;;44.22;21.77;;;;;;;;;;10497377;28;20032;-70
2023/11/13 08:49:44;;;;;;;38.28;20.05;;;;;;;;;;10487880;28;20033;-71
2023/11/13 08:54:44;;;;;;;37.95;19.25;;;;;;;;;;10493281;28;20033;-70
2023/11/13 08:59:44;;;;;;;37.73;17.37;;;;;;;;;;10497374;28;20295;-69
2023/11/13 09:04:45;;;;;;;29.15;16.05;;;;;;;;;;10496221;28;20129;-70
2023/11/13 09:09:45;;;;;;;32.40;16.27;;;;;;;;;;10503452;28;20524;-69
2023/11/13 09:14:46;;;;;;;32.20;16.60;;;;;;;;;;10504080;28;20106;-69
2023/11/13 09:19:48;;;;;;;34.42;17.10;;;;;;;;;;10503821;28;20101;-69
2023/11/13 09:24:49;;;;;;;37.58;20.92;;;;;;;;;;10503572;28;20047;-69
2023/11/13 09:29:49;;;;;;;38.42;19.10;;;;;;;;;;10504418;28;20345;-70
2023/11/13 09:34:49;;;;;;;36.30;18.17;;;;;;;;;;10496693;28;20188;-70
2023/11/13 09:39:51;;;;;;;39.33;17.67;;;;;;;;;;10504751;28;20028;-69
2023/11/13 09:44:52;;;;;;;29.80;16.15;;;;;;;;;;10504094;28;20236;-70
2023/11/13 09:49:59;;;;;;;43.25;16.88;;;;;;;;;;10504061;28;20047;-69
2023/11/13 09:55:02;;;;;;;23.75;13.68;;;;;;;;;;10485610;28;20032;-69
2023/11/13 10:00:03;;;;;;;32.83;13.25;;;;;;;;;;10503141;28;20271;-71
2023/11/13 10:05:03;;;;;;;23.15;11.13;;;;;;;;;;10503551;28;20039;-70
2023/11/13 10:10:05;;;;;;;26.67;12.77;;;;;;;;;;10503267;28;20396;-70
2023/11/13 10:15:12;;;;;;;27.83;13.68;;;;;;;;;;10497805;28;20029;-69
2023/11/13 10:20:17;;;;;;;36.25;12.98;;;;;;;;;;10484937;28;20096;-71
2023/11/13 10:25:17;;;;;;;23.73;12.35;;;;;;;;;;10502608;28;20032;-70
2023/11/13 10:30:18;;;;;;;22.53;11.70;;;;;;;;;;10502048;28;20032;-70
2023/11/13 10:35:32;;;;;;;24.40;12.25;;;;;;;;;;10502277;28;20039;-70
2023/11/13 10:40:33;;;;;;;18.77;11.13;;;;;;;;;;10484035;28;20036;-71
2023/11/13 10:45:34;;;;;;;22.25;10.65;;;;;;;;;;10502349;28;20036;-71
2023/11/13 10:50:34;;;;;;;29.97;11.13;;;;;;;;;;10501314;28;20327;-70
2023/11/13 10:55:35;;;;;;;21.00;10.47;;;;;;;;;;10500886;28;20043;-71
2023/11/13 11:00:36;;;;;;;22.63;9.93;;;;;;;;;;10500674;28;20031;-70
2023/11/13 11:05:39;;;;;;;7.53;4.18;;;;;;;;;;10500829;28;20036;-70
2023/11/13 11:10:40;;;;;;;9.13;4.75;;;;;;;;;;10500797;28;20135;-70
2023/11/13 11:16:04;;;;;;;5.88;3.50;;;;;;;;;;10500589;28;20376;-70
2023/11/13 11:21:07;;;;;;;9.25;3.67;;;;;;;;;;10500059;28;20039;-71
2023/11/13 11:26:07;;;;;;;6.45;2.70;;;;;;;;;;10499896;28;20167;-71
2023/11/13 11:31:26;;;;;;;4.73;2.23;;;;;;;;;;10498883;28;20044;-70
2023/11/13 11:36:33;;;;;;;8.57;2.50;;;;;;;;;;10481788;28;20311;-69
2023/11/13 11:41:41;;;;;;;5.93;2.72;;;;;;;;;;10481485;28;20028;-70
2023/11/13 11:46:45;;;;;;;2.15;1.38;;;;;;;;;;10499524;28;20107;-70
2023/11/13 11:51:45;;;;;;;3.05;1.40;;;;;;;;;;10501782;28;20025;-69
2023/11/13 11:56:57;;;;;;;5.90;2.03;;;;;;;;;;10499781;28;20032;-69
2023/11/13 12:02:03;;;;;;;9.82;2.78;;;;;;;;;;10499180;28;20342;-70
2023/11/13 12:07:09;;;;;;;5.65;1.90;;;;;;;;;;10498765;28;20036;-71
2023/11/13 12:12:11;;;;;;;10.88;2.20;;;;;;;;;;10498921;28;20036;-70
2023/11/13 12:17:12;;;;;;;3.63;1.27;;;;;;;;;;10497376;28;20040;-70
2023/11/13 12:22:13;;;;;;;5.35;1.95;;;;;;;;;;10498934;28;20038;-69
2023/11/13 12:27:13;;;;;;;3.08;1.40;;;;;;;;;;10498304;28;20024;-71
2023/11/13 12:32:15;;;;;;;2.38;1.10;;;;;;;;;;10498368;28;20040;-70
2023/11/13 12:37:15;;;;;;;1.73;0.80;;;;;;;;;;10498590;28;20044;-71
2023/11/13 12:42:15;;;;;;;1.88;0.70;;;;;;;;;;10502229;28;20078;-69
2023/11/13 12:47:16;;;;;;;3.55;1.55;;;;;;;;;;10506350;28;20024;-69
2023/11/13 12:52:18;;;;;;;3.60;1.00;;;;;;;;;;10506414;28;20020;-70
2023/11/13 12:57:18;;;;;;;3.65;0.85;;;;;;;;;;10505739;28;20060;-70
2023/11/13 13:02:20;;;;;;;3.97;1.00;;;;;;;;;;10505800;28;20258;-70
2023/11/13 13:07:21;;;;;;;6.13;1.70;;;;;;;;;;10506800;28;20087;-71
2023/11/13 13:12:21;;;;;;;4.68;0.60;;;;;;;;;;10505592;28;20345;-70
2023/11/13 13:17:26;;;;;;;3.83;1.20;;;;;;;;;;10487185;28;20044;-71
2023/11/13 13:22:26;;;;;;;5.63;1.20;;;;;;;;;;10505047;28;20436;-70
2023/11/13 13:27:26;;;;;;;3.55;0.90;;;;;;;;;;10504622;28;20040;-70
2023/11/13 13:32:30;;;;;;;2.45;1.20;;;;;;;;;;10504683;28;20110;-70
2023/11/13 13:37:31;;;;;;;2.97;0.73;;;;;;;;;;10504316;28;20032;-70
2023/11/13 13:42:33;;;;;;;3.38;0.80;;;;;;;;;;10504737;28;20032;-69
2023/11/13 13:47:34;;;;;;;2.78;1.42;;;;;;;;;;10484809;28;20100;-70
2023/11/13 13:52:35;;;;;;;3.22;0.93;;;;;;;;;;10502987;28;20036;-70
2023/11/13 13:57:36;;;;;;;1.08;0.65;;;;;;;;;;10503971;28;20106;-70
2023/11/13 14:02:38;;;;;;;2.72;0.80;;;;;;;;;;10503713;28;20287;-71
2023/11/13 14:07:38;;;;;;;3.28;1.33;;;;;;;;;;10485353;28;20303;-70
2023/11/13 14:12:39;;;;;;;2.35;0.93;;;;;;;;;;10503206;28;20047;-69
2023/11/13 14:17:39;;;;;;;3.40;0.90;;;;;;;;;;10502883;28;20043;-69
2023/11/13 14:22:46;;;;;;;9.32;2.80;;;;;;;;;;10502927;28;20369;-70
2023/11/13 14:27:53;;;;;;;3.75;1.52;;;;;;;;;;10502319;28;20029;-69
2023/11/13 14:32:54;;;;;;;8.67;1.80;;;;;;;;;;10501924;28;20170;-69
2023/11/13 14:37:54;;;;;;;8.88;2.00;;;;;;;;;;10483863;28;20028;-69
2023/11/13 14:42:55;;;;;;;10.45;2.50;;;;;;;;;;10501999;28;20031;-70
2023/11/13 14:47:55;;;;;;;8.02;2.90;;;;;;;;;;10501450;28;20315;-70
2023/11/13 14:52:55;;;;;;;7.63;2.75;;;;;;;;;;10484835;28;20299;-70
2023/11/13 14:57:55;;;;;;;12.55;3.35;;;;;;;;;;10476064;28;20222;-70
2023/11/13 15:02:56;;;;;;;6.00;3.33;;;;;;;;;;10500788;28;20078;-71
2023/11/13 15:07:56;;;;;;;7.68;3.10;;;;;;;;;;10500241;28;20024;-71
2023/11/13 15:12:57;;;;;;;11.73;4.00;;;;;;;;;;10498348;28;20035;-70
2023/11/13 15:17:57;;;;;;;10.07;3.47;;;;;;;;;;10498904;28;20048;-71
2023/11/13 15:22:57;;;;;;;8.10;3.33;;;;;;;;;;10498952;28;20040;-69
2023/11/13 15:27:58;;;;;;;11.52;3.70;;;;;;;;;;10498455;28;20033;-71
2023/11/13 15:33:03;;;;;;;10.30;3.50;;;;;;;;;;10498161;28;20044;-70
2023/11/13 15:38:03;;;;;;;10.70;3.28;;;;;;;;;;10497686;28;20222;-70
2023/11/13 15:43:03;;;;;;;16.33;3.80;;;;;;;;;;10479967;28;20028;-71
2023/11/13 15:48:04;;;;;;;17.67;5.30;;;;;;;;;;10498018;28;20123;-70
2023/11/13 15:53:04;;;;;;;15.32;4.95;;;;;;;;;;10498198;28;20046;-71
2023/11/13 15:58:06;;;;;;;12.10;4.40;;;;;;;;;;10497937;28;20319;-70
2023/11/13 16:03:06;;;;;;;16.35;5.18;;;;;;;;;;10512255;28;20032;-70
2023/11/13 16:08:07;;;;;;;19.17;5.38;;;;;;;;;;10497792;28;20321;-71
2023/11/13 16:13:07;;;;;;;20.83;6.65;;;;;;;;;;10497292;28;20024;-70
2023/11/13 16:18:07;;;;;;;27.17;8.95;;;;;;;;;;10502837;28;20350;-71
2023/11/13 16:23:08;;;;;;;22.07;8.07;;;;;;;;;;10506394;28;20032;-69
2023/11/13 16:28:08;;;;;;;27.95;7.50;;;;;;;;;;10506549;28;20028;-71
2023/11/13 16:33:11;;;;;;;19.70;4.73;;;;;;;;;;10505813;28;20278;-71
2023/11/13 16:38:11;;;;;;;18.63;4.60;;;;;;;;;;10503545;28;20033;-70
2023/11/13 16:43:12;;;;;;;17.73;4.47;;;;;;;;;;10500289;28;20040;-69
2023/11/13 16:48:12;;;;;;;15.23;5.85;;;;;;;;;;10501609;28;20050;-70
2023/11/13 16:53:15;;;;;;;12.40;3.73;;;;;;;;;;10500340;28;20234;-69
2023/11/13 16:58:15;;;;;;;22.00;6.55;;;;;;;;;;10498703;28;20279;-71
2023/11/13 17:03:15;;;;;;;16.60;6.10;;;;;;;;;;10496885;28;20657;-70
2023/11/13 17:08:16;;;;;;;11.68;5.45;;;;;;;;;;10493647;28;20028;-70
2023/11/13 17:13:16;;;;;;;22.90;6.45;;;;;;;;;;10504140;28;20024;-71
2023/11/13 17:18:18;;;;;;;15.23;8.33;;;;;;;;;;10503932;28;20024;-69
2023/11/13 17:23:18;;;;;;;19.77;7.05;;;;;;;;;;10511323;28;20223;-69
2023/11/13 17:28:18;;;;;;;18.63;5.32;;;;;;;;;;10502150;28;20049;-70
2023/11/13 17:33:22;;;;;;;10.03;6.10;;;;;;;;;;10503072;28;20079;-70
2023/11/13 17:38:23;;;;;;;16.75;6.43;;;;;;;;;;10503316;28;20033;-69
2023/11/13 17:43:23;;;;;;;18.05;6.50;;;;;;;;;;10502370;28;20232;-71
2023/11/13 17:48:24;;;;;;;21.10;6.65;;;;;;;;;;10484851;28;20032;-73
2023/11/13 17:53:25;;;;;;;19.25;6.38;;;;;;;;;;10502785;28;20024;-71
2023/11/13 17:58:25;;;;;;;19.95;7.55;;;;;;;;;;10511267;28;20029;-71
2023/11/13 18:03:25;;;;;;;22.50;6.90;;;;;;;;;;10502137;28;20028;-70
2023/11/13 18:08:27;;;;;;;22.17;8.43;;;;;;;;;;10484559;28;20028;-71
2023/11/13 18:13:31;;;;;;;19.20;8.63;;;;;;;;;;10517642;28;20249;-70
2023/11/13 18:18:32;;;;;;;24.92;11.60;;;;;;;;;;10501705;28;20108;-71
2023/11/13 18:23:32;;;;;;;40.47;10.10;;;;;;;;;;10501339;28;20028;-72
2023/11/13 18:28:32;;;;;;;19.25;8.88;;;;;;;;;;10462207;28;20035;-76
2023/11/13 18:33:39;;;;;;;26.00;9.80;;;;;;;;;;10485689;28;20072;-78
2023/11/13 18:38:39;;;;;;;23.45;9.07;;;;;;;;;;10483647;28;20103;-74
2023/11/13 18:43:39;;;;;;;21.35;8.95;;;;;;;;;;10479574;28;20040;-74
2023/11/13 18:48:43;;;;;;;26.38;9.32;;;;;;;;;;10479496;28;20568;-74
2023/11/13 18:53:43;;;;;;;30.35;10.88;;;;;;;;;;10480462;28;21104;-75
2023/11/13 18:58:44;;;;;;;26.85;10.40;;;;;;;;;;10479770;28;20036;-74
2023/11/13 19:03:45;;;;;;;23.70;10.05;;;;;;;;;;10478831;28;20254;-74
2023/11/13 19:08:45;;;;;;;27.38;10.15;;;;;;;;;;10481044;28;20070;-79
2023/11/13 19:13:48;;;;;;;21.15;9.32;;;;;;;;;;10477068;28;20352;-72
2023/11/13 19:18:51;;;;;;;26.98;10.20;;;;;;;;;;10474803;28;20103;-76
2023/11/13 19:23:54;;;;;;;38.05;11.60;;;;;;;;;;10479886;28;20032;-75
2023/11/13 19:28:54;;;;;;;20.45;7.53;;;;;;;;;;10481595;28;20036;-75
2023/11/13 19:33:54;;;;;;;22.58;9.38;;;;;;;;;;10462501;28;20268;-73
2023/11/13 19:38:55;;;;;;;21.48;9.27;;;;;;;;;;10475627;28;20035;-75
2023/11/13 19:43:55;;;;;;;29.98;10.57;;;;;;;;;;10462150;28;20028;-76
2023/11/13 19:48:56;;;;;;;26.02;11.00;;;;;;;;;;10480371;28;20024;-78
2023/11/13 19:53:56;;;;;;;24.30;10.15;;;;;;;;;;10481076;28;20044;-77
2023/11/13 19:58:57;;;;;;;25.57;10.70;;;;;;;;;;10477704;28;20076;-79
2023/11/13 20:03:57;;;;;;;25.02;10.05;;;;;;;;;;10475844;28;20032;-76
2023/11/13 20:09:04;;;;;;;23.55;8.77;;;;;;;;;;10474983;28;20016;-72
2023/11/13 20:14:04;;;;;;;19.95;8.88;;;;;;;;;;10474371;28;20032;-75
2023/11/13 20:19:06;;;;;;;22.63;8.52;;;;;;;;;;10484817;28;20521;-78
2023/11/13 20:24:17;;;;;;;11.95;6.72;;;;;;;;;;10474258;28;20272;-76
2023/11/13 20:29:18;;;;;;;14.20;6.85;;;;;;;;;;10468065;28;20031;-72
2023/11/13 20:34:21;;;;;;;12.75;4.70;;;;;;;;;;10441438;28;20060;-77
2023/11/13 20:39:21;;;;;;;11.98;5.03;;;;;;;;;;10474655;28;20032;-74
2023/11/13 20:44:22;;;;;;;10.05;5.32;;;;;;;;;;10467057;28;20231;-73
2023/11/13 20:49:22;;;;;;;16.23;4.43;;;;;;;;;;10469693;28;20323;-74
2023/11/13 20:54:22;;;;;;;12.15;4.75;;;;;;;;;;10469390;28;20036;-74
2023/11/13 20:59:23;;;;;;;9.32;4.68;;;;;;;;;;10474197;28;20051;-78
2023/11/13 21:04:23;;;;;;;14.55;4.10;;;;;;;;;;10484145;28;20071;-75
2023/11/13 21:09:25;;;;;;;8.00;4.03;;;;;;;;;;10471163;28;20060;-75
2023/11/13 21:14:27;;;;;;;10.68;3.97;;;;;;;;;;10486226;28;20095;-79
2023/11/13 21:19:28;;;;;;;8.30;3.72;;;;;;;;;;10478839;28;20036;-79
2023/11/13 21:24:28;;;;;;;6.68;3.13;;;;;;;;;;10491784;28;20041;-74
2023/11/13 21:29:30;;;;;;;7.15;3.60;;;;;;;;;;10477027;28;20052;-74
2023/11/13 21:34:30;;;;;;;7.82;3.75;;;;;;;;;;10478469;28;20040;-73
2023/11/13 21:39:31;;;;;;;8.32;4.00;;;;;;;;;;10476216;28;20098;-74
2023/11/13 21:44:31;;;;;;;7.90;4.13;;;;;;;;;;10504193;28;20040;-74
2023/11/13 21:49:31;;;;;;;6.68;3.78;;;;;;;;;;10504096;28;20273;-74
2023/11/13 21:54:32;;;;;;;8.52;4.43;;;;;;;;;;10497010;28;20033;-73
2023/11/13 21:59:32;;;;;;;7.23;4.57;;;;;;;;;;10497017;28;20428;-74
2023/11/13 22:04:34;;;;;;;10.07;4.50;;;;;;;;;;10503060;28;20039;-74
2023/11/13 22:09:37;;;;;;;17.75;7.93;;;;;;;;;;10485632;28;20036;-74
2023/11/13 22:14:37;;;;;;;19.27;6.80;;;;;;;;;;10502486;28;20044;-74
2023/11/13 22:19:37;;;;;;;12.55;4.85;;;;;;;;;;10503227;28;20290;-74
2023/11/13 22:24:37;;;;;;;16.80;6.68;;;;;;;;;;10499315;28;20272;-74
2023/11/13 22:29:45;;;;;;;11.77;5.38;;;;;;;;;;10484725;28;20060;-74
2023/11/13 22:34:46;;;;;;;16.02;5.70;;;;;;;;;;10501709;28;20373;-73
2023/11/13 22:39:48;;;;;;;18.10;6.05;;;;;;;;;;10502310;28;20052;-73
2023/11/13 22:44:49;;;;;;;12.30;5.80;;;;;;;;;;10501871;28;20028;-73
2023/11/13 22:49:49;;;;;;;16.13;5.63;;;;;;;;;;10504710;28;20203;-73
2023/11/13 22:54:51;;;;;;;10.25;4.70;;;;;;;;;;10488293;28;20032;-73
2023/11/13 22:59:51;;;;;;;12.73;6.05;;;;;;;;;;10501343;28;20028;-73
2023/11/13 23:04:52;;;;;;;10.93;6.37;;;;;;;;;;10501015;28;20039;-72
2023/11/13 23:09:55;;;;;;;21.42;5.95;;;;;;;;;;10488247;28;20041;-74
2023/11/13 23:14:56;;;;;;;11.25;5.68;;;;;;;;;;10487738;28;20036;-74
2023/11/13 23:19:56;;;;;;;13.13;6.00;;;;;;;;;;10499435;28;20322;-74
2023/11/13 23:24:56;;;;;;;18.80;6.95;;;;;;;;;;10500365;28;20115;-73
2023/11/13 23:29:56;;;;;;;11.48;5.45;;;;;;;;;;10499853;28;20020;-73
2023/11/13 23:34:58;;;;;;;13.80;6.45;;;;;;;;;;10499530;28;20250;-74
2023/11/13 23:40:01;;;;;;;20.85;9.05;;;;;;;;;;10499955;28;20028;-74
2023/11/13 23:45:01;;;;;;;10.90;6.55;;;;;;;;;;10499892;28;20035;-75
2023/11/13 23:50:02;;;;;;;14.18;7.55;;;;;;;;;;10499729;28;20103;-74
2023/11/13 23:55:03;;;;;;;24.27;8.43;;;;;;;;;;10499366;28;20342;-73
